PAHN

Haines Airport

Airport
ICAO code
PAHN
IATA Code
HNS
Summary
ICAO Region
NAM
ICAO Territory
Location

, Alaska

Serving
Haines
Elevation
15 ft
Coordinates
59° 14' 38" N , 135° 31' 26" W
Metar
PAHN 180454Z AUTO 10007KT 10SM CLR 17/11 A2995 RMK AO2 SLP145 T01670111 TSNO

Runways

Designator Length Width Surface Rops
8/26 1219 30 ASP No/No

Airport map

Aerial View

SKYbrary Partners:

Safety knowledge contributed by: